HVE weather

Veronica Heliport
Miguel Hidalgo, Ciudad de México, Mexico

Public forecast

Using degrees Celsius for public forecast. Weather courtesy of forecast.io.

Closest aviation weather report (METAR) to Veronica Heliport

Closest report is Licenciado Benito Juarez International Airport, 6.0 nm (11.1 km) E. Retrieved 2019/12/13 10:42 UTC (0 seconds ago):

MMMX 131042Z 36004KT 8SM FEW250 11/03 A3035 NOSIG RMK 8/002 HZY

Closest aviation forecast (TAF) to Veronica Heliport

Closest forecast is Licenciado Benito Juarez International Airport, 6.0 nm (11.1 km) E. Retrieved 2019/12/13 06:48 UTC (3 hours ago):

TAF MMMX 130447Z 1306/1412 02005KT 6SM HZ SCT025 TX23/1321Z TN09/1312Z FM131000 02005KT 5SM HZ SCT015 TEMPO 1311/1315 3SM BR BKN010 FM131800 33010KT 6SM HZ SCT030 FM140300 03005KT 6SM HZ SCT020